Time;durP1;ratioP1;P1;durP2;ratioP2;P2;SDS_P1;SDS_P2;PMS_P1;PMS_P2;Temp;Humidity;BMP_temperature;BMP_pressure;BME280_temperature;BME280_humidity;BME280_pressure;Samples;Min_cycle;Max_cycle;Signal;HPM_P1;HPM_P2
2021/05/27 00:01:53;;;;;;;0.40;0.38;;;10.10;99.90;;;;;;5016369;28;20109;-73
2021/05/27 00:04:19;;;;;;;3.45;0.73;;;10.20;99.90;;;;;;5011122;28;20093;-73
2021/05/27 00:06:44;;;;;;;1.08;0.40;;;10.20;99.90;;;;;;5013402;28;20190;-72
2021/05/27 00:09:10;;;;;;;0.85;0.57;;;10.20;99.90;;;;;;5010710;28;20180;-72
2021/05/27 00:11:36;;;;;;;0.70;0.50;;;10.00;99.90;;;;;;5015867;28;20093;-73
2021/05/27 00:14:02;;;;;;;1.85;0.40;;;10.00;99.90;;;;;;5010495;28;20113;-73
2021/05/27 00:16:27;;;;;;;1.42;0.50;;;10.00;99.90;;;;;;5012226;28;20089;-73
2021/05/27 00:18:53;;;;;;;1.02;0.50;;;10.00;99.90;;;;;;5004404;28;20078;-73
2021/05/27 00:21:20;;;;;;;0.68;0.40;;;10.00;99.90;;;;;;5014093;28;20088;-73
2021/05/27 00:23:46;;;;;;;1.27;0.57;;;10.10;99.90;;;;;;4990950;28;20082;-73
2021/05/27 00:26:11;;;;;;;0.65;0.45;;;10.20;99.90;;;;;;4989072;28;20520;-74
2021/05/27 00:28:37;;;;;;;0.70;0.43;;;10.20;99.90;;;;;;5008950;28;20576;-74
2021/05/27 00:31:04;;;;;;;0.63;0.50;;;10.20;99.90;;;;;;5009745;28;20508;-73
2021/05/27 00:33:29;;;;;;;0.70;0.57;;;10.20;99.90;;;;;;5007539;28;20759;-74
2021/05/27 00:35:55;;;;;;;1.90;0.98;;;10.10;99.90;;;;;;5013718;28;20569;-74
2021/05/27 00:38:20;;;;;;;0.98;0.60;;;10.10;99.90;;;;;;4987333;28;20075;-74
2021/05/27 00:40:46;;;;;;;1.13;0.50;;;10.00;99.90;;;;;;5010779;28;20539;-73
2021/05/27 00:43:12;;;;;;;0.57;0.45;;;10.10;99.90;;;;;;5008689;28;20102;-75
2021/05/27 00:45:37;;;;;;;1.00;0.60;;;10.00;99.90;;;;;;5009314;28;20161;-74
2021/05/27 00:48:03;;;;;;;1.65;0.77;;;10.00;99.90;;;;;;5016662;28;20086;-73
2021/05/27 00:50:29;;;;;;;0.98;0.55;;;10.10;99.90;;;;;;5011645;28;20098;-73
2021/05/27 00:52:56;;;;;;;0.63;0.50;;;10.00;99.90;;;;;;5012413;28;20121;-73
2021/05/27 00:55:24;;;;;;;0.93;0.77;;;9.90;99.90;;;;;;5007818;28;20573;-73
2021/05/27 00:57:51;;;;;;;1.00;0.57;;;9.90;99.90;;;;;;5015861;28;20078;-73
2021/05/27 01:00:21;;;;;;;1.95;0.52;;;10.00;99.90;;;;;;5005417;28;20086;-73
2021/05/27 01:02:46;;;;;;;1.08;0.55;;;9.90;99.90;;;;;;5013447;28;20515;-73
2021/05/27 01:05:15;;;;;;;1.13;0.60;;;9.80;99.90;;;;;;5012897;28;20088;-74
2021/05/27 01:07:41;;;;;;;1.02;0.63;;;9.80;99.90;;;;;;5018040;28;20108;-73
2021/05/27 01:10:09;;;;;;;2.03;0.70;;;9.80;99.90;;;;;;5018866;28;20534;-73
2021/05/27 01:12:35;;;;;;;0.50;0.50;;;9.80;99.90;;;;;;5012299;28;20102;-74
2021/05/27 01:17:44;;;;;;;0.82;0.60;;;9.80;99.90;;;;;;5016206;28;20112;-73
2021/05/27 01:20:12;;;;;;;1.65;0.77;;;9.70;99.90;;;;;;5020443;28;20089;-75
2021/05/27 01:22:38;;;;;;;1.20;0.82;;;9.70;99.90;;;;;;5009310;28;20807;-73
2021/05/27 01:25:08;;;;;;;1.15;0.80;;;9.70;99.90;;;;;;4994990;28;20313;-73
2021/05/27 01:27:34;;;;;;;1.15;0.70;;;9.60;99.90;;;;;;5012596;28;20085;-74
2021/05/27 01:30:00;;;;;;;1.30;1.05;;;9.70;99.90;;;;;;5008147;28;20085;-73
2021/05/27 01:32:26;;;;;;;1.83;0.68;;;9.70;99.90;;;;;;5000939;28;20100;-73
2021/05/27 01:34:51;;;;;;;2.55;1.50;;;9.60;99.90;;;;;;5016797;28;20102;-73
2021/05/27 01:37:17;;;;;;;2.17;1.30;;;9.70;99.90;;;;;;5015449;28;20082;-73
2021/05/27 01:39:47;;;;;;;0.95;0.70;;;9.60;99.90;;;;;;5016100;28;20116;-73
2021/05/27 01:42:14;;;;;;;2.30;1.20;;;9.70;99.90;;;;;;5013136;28;20121;-72
2021/05/27 01:44:41;;;;;;;2.00;0.88;;;9.70;99.90;;;;;;5000230;28;20100;-73
2021/05/27 01:47:07;;;;;;;2.15;1.17;;;9.70;99.90;;;;;;5006082;28;20509;-72
2021/05/27 01:49:33;;;;;;;1.20;0.90;;;9.70;99.90;;;;;;4989574;28;20276;-72
2021/05/27 01:51:58;;;;;;;1.52;1.10;;;9.70;99.90;;;;;;5002799;28;20757;-73
2021/05/27 01:54:24;;;;;;;0.88;0.70;;;9.80;99.90;;;;;;5015243;28;20070;-73
2021/05/27 01:56:50;;;;;;;4.20;1.00;;;9.70;99.90;;;;;;5021759;28;20486;-73
2021/05/27 01:59:15;;;;;;;1.10;1.00;;;9.80;99.90;;;;;;5013693;28;20082;-72
2021/05/27 02:01:41;;;;;;;1.10;0.90;;;9.90;99.90;;;;;;5015805;28;20100;-72
2021/05/27 02:04:07;;;;;;;1.80;1.10;;;9.80;99.90;;;;;;5008664;28;20082;-73
2021/05/27 02:06:32;;;;;;;2.33;1.10;;;9.80;99.90;;;;;;5007847;28;20097;-73
2021/05/27 02:09:10;;;;;;;2.22;1.02;;;9.80;99.90;;;;;;5007619;28;20106;-73
2021/05/27 02:11:41;;;;;;;1.20;0.88;;;9.80;99.90;;;;;;5020257;28;20122;-73
2021/05/27 02:14:08;;;;;;;1.60;1.05;;;9.80;99.90;;;;;;5011107;28;20071;-73
2021/05/27 02:16:35;;;;;;;1.00;0.70;;;9.80;99.90;;;;;;5015024;28;20079;-72
2021/05/27 02:19:01;;;;;;;0.93;0.60;;;9.80;99.90;;;;;;4997944;28;20082;-73
2021/05/27 02:21:27;;;;;;;0.77;0.60;;;9.80;99.90;;;;;;5013851;28;20105;-73
2021/05/27 02:23:57;;;;;;;1.52;0.80;;;9.70;99.90;;;;;;5014446;28;20724;-73
2021/05/27 02:26:23;;;;;;;1.58;1.00;;;9.70;99.90;;;;;;5020101;28;20545;-73
2021/05/27 02:28:49;;;;;;;1.35;0.55;;;9.80;99.90;;;;;;5019667;28;20094;-73
2021/05/27 02:31:16;;;;;;;1.52;0.57;;;9.70;99.90;;;;;;5008673;28;20136;-72
2021/05/27 02:33:42;;;;;;;1.48;0.60;;;9.60;99.90;;;;;;5021179;28;20219;-73
2021/05/27 02:36:08;;;;;;;0.85;0.60;;;9.60;99.90;;;;;;5006738;28;20635;-72
2021/05/27 02:38:33;;;;;;;1.92;0.80;;;9.60;99.90;;;;;;4996332;28;20141;-73
2021/05/27 02:40:59;;;;;;;0.70;0.55;;;9.60;99.90;;;;;;5016381;28;20082;-73
2021/05/27 02:43:25;;;;;;;0.80;0.50;;;9.60;99.90;;;;;;5005617;28;20469;-73
2021/05/27 02:45:51;;;;;;;0.60;0.55;;;9.50;99.90;;;;;;5011072;28;20222;-73
2021/05/27 02:48:16;;;;;;;3.25;0.60;;;9.60;99.90;;;;;;5002983;28;20086;-73
2021/05/27 02:50:42;;;;;;;0.80;0.52;;;9.50;99.90;;;;;;5014522;28;20101;-74
2021/05/27 02:53:08;;;;;;;0.82;0.55;;;9.50;99.90;;;;;;5023098;28;20090;-74
2021/05/27 02:55:33;;;;;;;1.35;0.90;;;9.50;99.90;;;;;;5016483;28;20180;-73
2021/05/27 02:57:59;;;;;;;1.23;0.95;;;9.60;99.90;;;;;;5014790;28;20078;-73
2021/05/27 03:00:24;;;;;;;1.08;0.43;;;9.50;99.90;;;;;;5005305;28;20097;-73
2021/05/27 03:02:50;;;;;;;2.50;0.60;;;9.50;99.90;;;;;;5016429;28;20093;-74
2021/05/27 03:05:15;;;;;;;1.45;0.73;;;9.60;99.90;;;;;;5010696;28;20503;-73
2021/05/27 03:07:41;;;;;;;0.88;0.70;;;9.60;99.90;;;;;;5010539;28;20172;-73
2021/05/27 03:10:07;;;;;;;1.48;0.65;;;9.70;99.90;;;;;;5015640;28;20090;-73
2021/05/27 03:12:32;;;;;;;1.10;0.52;;;9.80;99.90;;;;;;5015394;28;20217;-74
2021/05/27 03:14:58;;;;;;;1.52;0.80;;;9.70;99.90;;;;;;5013506;28;20089;-74
2021/05/27 03:17:24;;;;;;;1.02;0.73;;;9.70;99.90;;;;;;5007937;28;20078;-73
2021/05/27 03:19:49;;;;;;;0.75;0.60;;;9.70;99.90;;;;;;5009533;28;20213;-73
2021/05/27 03:22:15;;;;;;;1.50;0.45;;;9.60;99.90;;;;;;5014236;28;20144;-74
2021/05/27 03:24:40;;;;;;;2.53;0.90;;;9.70;99.90;;;;;;5017218;28;20685;-74
2021/05/27 03:27:06;;;;;;;0.60;0.45;;;9.70;99.90;;;;;;5024101;28;20124;-73
2021/05/27 03:29:31;;;;;;;1.63;0.52;;;9.60;99.90;;;;;;5012243;28;20143;-75
2021/05/27 03:31:57;;;;;;;0.50;0.30;;;9.60;99.90;;;;;;4992143;28;20094;-73
2021/05/27 03:34:23;;;;;;;2.05;0.47;;;9.60;99.90;;;;;;5023300;28;20082;-73
2021/05/27 03:36:49;;;;;;;1.58;0.52;;;9.50;99.90;;;;;;5007758;28;20510;-73
2021/05/27 03:39:14;;;;;;;1.08;0.50;;;9.50;99.90;;;;;;5028284;28;20156;-72
2021/05/27 03:41:40;;;;;;;0.60;0.50;;;9.40;99.90;;;;;;5014676;28;20211;-73
2021/05/27 03:44:05;;;;;;;0.30;0.30;;;9.40;99.90;;;;;;5009118;28;20113;-73
2021/05/27 03:46:35;;;;;;;2.58;0.40;;;9.50;99.90;;;;;;5007171;28;20172;-73
2021/05/27 03:49:00;;;;;;;0.98;0.50;;;9.50;99.90;;;;;;5004594;28;20124;-73
2021/05/27 03:51:26;;;;;;;0.47;0.30;;;9.30;99.90;;;;;;5013284;28;20098;-73
2021/05/27 03:53:52;;;;;;;0.70;0.50;;;9.40;99.90;;;;;;5017843;28;20143;-73
2021/05/27 03:56:17;;;;;;;1.45;0.60;;;9.50;99.90;;;;;;5011328;28;20082;-73
2021/05/27 04:01:27;;;;;;;0.80;0.50;;;9.60;99.90;;;;;;5016672;28;20148;-74
2021/05/27 04:09:21;;;;;;;0.82;0.43;;;9.40;99.90;;;;;;5013507;28;20229;-74
2021/05/27 04:11:46;;;;;;;0.90;0.40;;;9.50;99.90;;;;;;5021329;28;20173;-74
2021/05/27 04:14:12;;;;;;;0.70;0.40;;;9.60;99.90;;;;;;5003574;28;20469;-73
2021/05/27 04:16:38;;;;;;;1.02;0.50;;;9.60;99.90;;;;;;5010636;28;20073;-73
2021/05/27 04:19:03;;;;;;;0.65;0.43;;;9.60;99.90;;;;;;5012039;28;20919;-73
2021/05/27 04:21:29;;;;;;;0.73;0.60;;;9.60;99.90;;;;;;5008117;28;20097;-73
2021/05/27 04:23:54;;;;;;;1.88;0.63;;;9.60;99.90;;;;;;5018453;28;20124;-73
2021/05/27 04:26:20;;;;;;;1.30;0.60;;;9.50;99.90;;;;;;5016964;28;20078;-73
2021/05/27 04:28:47;;;;;;;0.95;0.40;;;9.50;99.90;;;;;;5022552;28;20128;-73
2021/05/27 04:31:17;;;;;;;0.82;0.43;;;9.60;99.90;;;;;;5004667;28;20116;-73
2021/05/27 04:33:42;;;;;;;2.13;0.50;;;9.70;99.90;;;;;;5015469;28;20137;-73
2021/05/27 04:36:12;;;;;;;0.75;0.60;;;9.50;99.90;;;;;;5012940;28;20125;-73
2021/05/27 04:38:38;;;;;;;0.98;0.40;;;9.50;99.90;;;;;;5016452;28;20143;-73
2021/05/27 04:41:04;;;;;;;0.90;0.63;;;9.60;99.90;;;;;;5018480;28;20110;-73
2021/05/27 04:43:31;;;;;;;1.58;0.55;;;9.70;99.90;;;;;;5002626;28;20876;-73
2021/05/27 04:45:57;;;;;;;0.98;0.60;;;9.70;99.90;;;;;;4989504;28;20082;-73
2021/05/27 04:48:23;;;;;;;2.58;0.50;;;9.70;99.90;;;;;;5013040;28;20085;-73
2021/05/27 04:50:49;;;;;;;0.50;0.40;;;9.60;99.90;;;;;;5030003;28;20094;-73
2021/05/27 04:53:20;;;;;;;1.02;0.70;;;9.70;99.90;;;;;;4997221;28;20114;-73
2021/05/27 04:55:46;;;;;;;2.30;0.77;;;9.60;99.90;;;;;;5005029;28;20133;-73
2021/05/27 04:58:12;;;;;;;2.05;1.40;;;9.60;99.90;;;;;;5016940;28;20169;-73
2021/05/27 05:00:38;;;;;;;3.15;1.73;;;9.60;99.90;;;;;;5004967;28;20122;-73
2021/05/27 05:03:04;;;;;;;1.83;1.27;;;9.60;99.90;;;;;;5021145;28;20125;-73
2021/05/27 05:05:31;;;;;;;2.00;1.15;;;9.60;99.90;;;;;;4998325;28;20082;-73
2021/05/27 05:07:57;;;;;;;1.25;1.15;;;9.60;99.90;;;;;;5022907;28;20116;-74
2021/05/27 05:10:25;;;;;;;0.80;0.80;;;9.60;99.90;;;;;;5026478;28;20090;-74
2021/05/27 05:12:51;;;;;;;1.40;0.68;;;9.60;99.90;;;;;;5025372;28;20090;-73
2021/05/27 05:15:29;;;;;;;0.57;0.50;;;9.60;99.90;;;;;;5006830;28;20100;-72
2021/05/27 05:17:57;;;;;;;3.08;0.75;;;9.60;99.90;;;;;;5019591;28;20073;-73
2021/05/27 05:20:29;;;;;;;1.83;0.80;;;9.60;99.90;;;;;;4994055;28;20070;-73
2021/05/27 05:22:56;;;;;;;1.10;0.60;;;9.60;99.90;;;;;;5023569;28;20094;-74
2021/05/27 05:25:23;;;;;;;1.13;1.02;;;9.40;99.90;;;;;;4994690;28;20565;-75
2021/05/27 05:27:49;;;;;;;1.13;0.77;;;9.40;99.90;;;;;;5016629;28;20442;-74
2021/05/27 05:30:16;;;;;;;2.35;0.98;;;9.40;99.90;;;;;;5015098;28;20066;-76
2021/05/27 05:32:42;;;;;;;1.83;0.60;;;9.50;99.90;;;;;;5030522;28;20101;-73
2021/05/27 05:35:10;;;;;;;1.98;0.70;;;9.40;99.90;;;;;;5016921;28;20078;-73
2021/05/27 05:37:37;;;;;;;1.52;0.60;;;9.40;99.90;;;;;;5021572;28;20084;-74
2021/05/27 05:40:04;;;;;;;0.73;0.50;;;9.40;99.90;;;;;;5008904;28;20066;-73
2021/05/27 05:42:30;;;;;;;1.15;0.60;;;9.30;99.90;;;;;;5013719;28;20176;-73
2021/05/27 05:44:55;;;;;;;2.45;0.70;;;9.30;99.90;;;;;;4997038;28;20200;-73
2021/05/27 05:47:21;;;;;;;1.30;0.93;;;9.40;99.90;;;;;;5012363;28;20128;-74
2021/05/27 05:49:46;;;;;;;0.50;0.40;;;9.60;99.90;;;;;;5021186;28;20132;-73
2021/05/27 05:52:13;;;;;;;1.02;0.70;;;9.50;99.90;;;;;;5012205;28;20446;-74
2021/05/27 05:54:39;;;;;;;1.58;0.80;;;9.40;99.90;;;;;;5015310;28;20086;-74
2021/05/27 05:57:05;;;;;;;1.27;0.60;;;9.50;99.90;;;;;;5018728;28;20590;-74
2021/05/27 05:59:30;;;;;;;1.00;0.70;;;9.60;99.90;;;;;;5004593;28;20084;-75
2021/05/27 06:01:56;;;;;;;1.63;0.80;;;9.60;99.90;;;;;;5017399;28;20211;-75
2021/05/27 06:04:21;;;;;;;1.45;1.10;;;9.60;99.90;;;;;;5012210;28;20406;-75
2021/05/27 06:06:47;;;;;;;2.45;0.82;;;9.60;99.90;;;;;;5020637;28;20167;-74
2021/05/27 06:09:13;;;;;;;1.88;0.90;;;9.80;99.90;;;;;;5013564;28;20526;-75
2021/05/27 06:11:38;;;;;;;0.80;0.70;;;9.90;99.90;;;;;;5021925;28;21219;-74
2021/05/27 06:14:04;;;;;;;1.13;0.70;;;9.90;99.90;;;;;;5027476;28;20105;-74
2021/05/27 06:16:29;;;;;;;0.50;0.50;;;10.00;99.90;;;;;;5012706;28;20081;-74
2021/05/27 06:18:55;;;;;;;3.25;1.23;;;9.90;99.90;;;;;;5014851;28;20081;-74
2021/05/27 06:21:21;;;;;;;1.77;0.73;;;9.80;99.90;;;;;;5020821;28;20090;-75
2021/05/27 06:23:47;;;;;;;1.15;0.70;;;9.70;99.90;;;;;;5012134;28;20653;-74
2021/05/27 06:26:13;;;;;;;2.08;0.70;;;9.60;99.90;;;;;;5013086;28;20101;-74
2021/05/27 06:28:39;;;;;;;2.03;1.70;;;9.70;99.90;;;;;;5025131;28;20175;-74
2021/05/27 06:31:04;;;;;;;2.22;1.33;;;9.70;99.90;;;;;;4998152;28;20089;-74
2021/05/27 06:33:30;;;;;;;0.85;0.60;;;9.70;99.90;;;;;;5009283;28;20106;-75
2021/05/27 06:35:55;;;;;;;1.10;0.93;;;9.80;99.90;;;;;;5009575;28;20086;-75
2021/05/27 06:38:21;;;;;;;0.93;0.70;;;9.80;99.90;;;;;;5017122;28;20078;-74
2021/05/27 06:40:46;;;;;;;1.35;1.08;;;9.70;99.90;;;;;;5020926;28;20093;-75
2021/05/27 06:43:12;;;;;;;3.60;1.65;;;9.80;99.90;;;;;;5019483;28;20093;-74
2021/05/27 06:45:38;;;;;;;0.93;0.60;;;9.70;99.90;;;;;;5013671;28;20258;-74
2021/05/27 06:48:04;;;;;;;1.35;0.52;;;9.70;99.90;;;;;;5007852;28;20533;-74
2021/05/27 06:50:34;;;;;;;0.60;0.57;;;9.80;99.90;;;;;;5022023;28;20133;-75
2021/05/27 06:53:05;;;;;;;1.05;0.70;;;9.90;99.90;;;;;;5002902;28;20086;-75
2021/05/27 06:55:32;;;;;;;2.33;1.02;;;10.00;99.90;;;;;;5016365;28;20082;-74
2021/05/27 06:57:58;;;;;;;1.67;0.90;;;9.90;99.90;;;;;;5022633;28;20534;-75
2021/05/27 07:00:24;;;;;;;1.02;0.50;;;9.90;99.90;;;;;;5015985;28;20070;-75
2021/05/27 07:02:51;;;;;;;2.50;0.88;;;10.00;99.90;;;;;;5005745;28;20101;-75
2021/05/27 07:05:17;;;;;;;2.03;0.85;;;10.10;99.90;;;;;;5007274;28;20613;-74
2021/05/27 07:07:43;;;;;;;0.85;0.68;;;10.10;99.90;;;;;;5019054;28;20114;-74
2021/05/27 07:10:10;;;;;;;0.50;0.40;;;10.10;99.90;;;;;;5027647;28;20148;-74
2021/05/27 07:12:35;;;;;;;1.95;0.60;;;10.10;99.90;;;;;;5017157;28;20584;-74
2021/05/27 07:15:01;;;;;;;1.30;0.73;;;10.20;99.90;;;;;;5022457;28;20074;-74
2021/05/27 07:17:27;;;;;;;0.60;0.52;;;10.10;99.90;;;;;;5020400;28;20112;-75
2021/05/27 07:19:54;;;;;;;1.05;0.60;;;10.10;99.90;;;;;;5020840;28;20149;-75
2021/05/27 07:22:20;;;;;;;1.50;0.90;;;10.10;99.90;;;;;;5023410;28;20542;-74
2021/05/27 07:24:47;;;;;;;0.80;0.43;;;10.10;99.90;;;;;;5014619;28;20094;-74
2021/05/27 07:27:12;;;;;;;1.08;0.60;;;10.10;99.90;;;;;;5024035;28;20133;-74
2021/05/27 07:29:38;;;;;;;2.03;0.63;;;10.10;99.90;;;;;;4997023;28;20546;-74
2021/05/27 07:32:07;;;;;;;2.63;1.05;;;10.20;99.90;;;;;;5023929;28;20104;-75
2021/05/27 07:34:34;;;;;;;1.67;0.30;;;10.20;99.90;;;;;;5001790;28;20078;-75
2021/05/27 07:36:59;;;;;;;1.60;0.73;;;10.30;99.90;;;;;;5013710;28;20578;-74
2021/05/27 07:39:25;;;;;;;1.23;0.40;;;10.30;99.90;;;;;;5016596;28;20074;-75
2021/05/27 07:41:51;;;;;;;1.60;0.60;;;10.30;99.90;;;;;;5017824;28;20094;-74
2021/05/27 07:44:16;;;;;;;5.63;1.52;;;10.30;99.90;;;;;;5021393;28;20105;-74
2021/05/27 07:46:42;;;;;;;3.60;1.48;;;10.30;99.90;;;;;;5016842;28;20084;-74
2021/05/27 07:49:08;;;;;;;2.53;0.93;;;10.40;99.90;;;;;;5023687;28;20078;-74
2021/05/27 07:51:34;;;;;;;1.15;0.75;;;10.40;99.90;;;;;;5003518;28;20093;-74
2021/05/27 07:53:59;;;;;;;2.85;0.82;;;10.40;99.90;;;;;;5026662;28;20160;-74
2021/05/27 07:56:25;;;;;;;1.17;0.85;;;10.30;99.90;;;;;;5025241;28;20065;-75
2021/05/27 07:58:51;;;;;;;0.60;0.50;;;10.20;99.90;;;;;;5028287;28;20086;-75
2021/05/27 08:01:16;;;;;;;3.42;0.80;;;10.20;99.90;;;;;;5027059;28;20086;-74
2021/05/27 08:03:42;;;;;;;1.15;0.43;;;10.10;99.90;;;;;;5026332;28;20176;-74
2021/05/27 08:06:08;;;;;;;0.90;0.60;;;10.20;99.90;;;;;;5025580;28;20114;-75
2021/05/27 08:08:33;;;;;;;0.98;0.55;;;10.30;99.90;;;;;;5022880;28;20077;-74
2021/05/27 08:10:59;;;;;;;1.95;0.30;;;10.30;99.90;;;;;;5007512;28;20100;-74
2021/05/27 08:13:25;;;;;;;3.15;0.77;;;10.30;99.90;;;;;;5011393;28;20618;-74
2021/05/27 08:15:51;;;;;;;1.42;0.88;;;10.20;99.90;;;;;;5022559;28;20102;-75
2021/05/27 08:18:17;;;;;;;0.70;0.50;;;10.30;99.90;;;;;;5028320;28;20518;-75
2021/05/27 08:20:43;;;;;;;1.30;0.82;;;10.30;99.90;;;;;;5023285;28;20078;-75
2021/05/27 08:23:08;;;;;;;2.47;1.48;;;10.30;99.90;;;;;;5026606;28;20553;-75
2021/05/27 08:25:34;;;;;;;1.02;0.60;;;10.30;99.90;;;;;;5019490;28;20093;-76
2021/05/27 08:27:59;;;;;;;1.50;0.70;;;10.30;99.90;;;;;;5022017;28;20082;-74
2021/05/27 08:30:25;;;;;;;1.15;1.05;;;10.30;99.90;;;;;;5023313;28;20477;-75
2021/05/27 08:32:52;;;;;;;1.50;0.80;;;10.40;99.90;;;;;;5003605;28;20105;-76
2021/05/27 08:35:17;;;;;;;1.30;0.70;;;10.40;99.90;;;;;;5006097;28;20066;-75
2021/05/27 08:37:43;;;;;;;1.45;0.57;;;10.40;99.90;;;;;;5016172;28;20180;-75
2021/05/27 08:40:09;;;;;;;0.90;0.50;;;10.50;99.90;;;;;;5001395;28;20084;-75
2021/05/27 08:42:36;;;;;;;0.50;0.30;;;10.50;99.90;;;;;;5023993;28;20117;-75
2021/05/27 08:45:04;;;;;;;0.93;0.50;;;10.50;99.90;;;;;;5020939;28;20074;-76
2021/05/27 08:47:29;;;;;;;0.77;0.68;;;10.50;99.90;;;;;;5023693;28;20118;-75
2021/05/27 08:49:55;;;;;;;0.73;0.50;;;10.50;99.90;;;;;;5010652;28;20137;-74
2021/05/27 08:52:21;;;;;;;1.08;0.43;;;10.60;99.90;;;;;;5029408;28;20618;-81
2021/05/27 08:54:47;;;;;;;1.40;0.38;;;10.60;99.90;;;;;;5013393;28;20169;-75
2021/05/27 08:57:12;;;;;;;2.55;1.65;;;10.60;99.90;;;;;;5005035;28;20542;-75
2021/05/27 08:59:38;;;;;;;1.00;0.45;;;10.60;99.90;;;;;;5022119;28;20082;-75
2021/05/27 09:02:03;;;;;;;1.33;0.65;;;10.60;99.90;;;;;;5004541;28;20101;-74
2021/05/27 09:04:29;;;;;;;0.60;0.30;;;10.70;99.90;;;;;;5020733;28;20109;-75
2021/05/27 09:06:55;;;;;;;0.80;0.45;;;10.70;99.90;;;;;;5024188;28;20109;-75
2021/05/27 09:09:21;;;;;;;0.50;0.45;;;10.70;99.90;;;;;;5025821;28;20530;-74
2021/05/27 09:11:48;;;;;;;1.48;0.40;;;10.70;99.90;;;;;;5010039;28;20106;-74
2021/05/27 09:14:13;;;;;;;0.95;0.55;;;10.70;99.90;;;;;;5023081;28;20181;-75
2021/05/27 09:17:15;;;;;;;3.25;0.65;;;10.80;99.90;;;;;;5022638;28;20153;-74
2021/05/27 09:19:40;;;;;;;1.08;0.90;;;10.80;99.90;;;;;;4942622;29;20075;-75
2021/05/27 09:22:22;;;;;;;1.17;0.57;;;10.80;99.90;;;;;;5007023;28;20102;-74
2021/05/27 09:24:48;;;;;;;2.17;0.88;;;10.80;99.90;;;;;;5022258;28;20078;-74
2021/05/27 09:27:14;;;;;;;2.05;1.20;;;10.90;99.90;;;;;;5017599;28;20084;-75
2021/05/27 09:29:45;;;;;;;0.63;0.43;;;11.00;99.90;;;;;;5022325;28;20077;-73
2021/05/27 09:32:11;;;;;;;1.00;0.50;;;10.90;99.90;;;;;;5019056;28;20554;-74
2021/05/27 09:34:44;;;;;;;0.30;0.20;;;11.00;99.90;;;;;;5023029;28;20093;-75
2021/05/27 09:37:22;;;;;;;1.00;0.50;;;11.00;99.90;;;;;;5022921;28;21020;-75
2021/05/27 09:39:50;;;;;;;1.58;0.65;;;11.00;99.90;;;;;;5019514;28;20418;-74
2021/05/27 09:42:16;;;;;;;1.00;0.98;;;11.00;99.90;;;;;;5024213;28;20094;-74
2021/05/27 09:44:41;;;;;;;0.98;0.57;;;11.10;99.90;;;;;;5006007;28;20080;-74
2021/05/27 09:47:07;;;;;;;1.40;0.60;;;11.10;99.90;;;;;;5008502;28;20099;-74
2021/05/27 09:49:34;;;;;;;1.17;0.40;;;11.10;99.90;;;;;;5022982;28;20092;-75
2021/05/27 09:52:19;;;;;;;1.08;0.80;;;11.20;99.90;;;;;;5000342;28;20105;-75
2021/05/27 09:54:55;;;;;;;;;;;11.20;99.90;;;;;;5026766;28;20076;-75
2021/05/27 09:57:25;;;;;;;0.68;0.50;;;11.20;99.90;;;;;;5002921;28;20069;-74
2021/05/27 09:59:55;;;;;;;1.90;0.70;;;11.20;99.90;;;;;;5019508;28;20445;-74
2021/05/27 10:02:22;;;;;;;0.75;0.40;;;11.20;99.90;;;;;;5012907;28;20090;-75
2021/05/27 10:04:57;;;;;;;0.93;0.50;;;11.20;99.90;;;;;;5022721;28;20088;-75
2021/05/27 10:07:36;;;;;;;1.35;0.82;;;11.30;99.90;;;;;;5008449;28;20073;-74
2021/05/27 10:10:05;;;;;;;2.10;0.85;;;11.40;99.90;;;;;;5021625;28;20129;-75
2021/05/27 10:12:40;;;;;;;1.30;0.70;;;11.50;99.90;;;;;;5004968;28;20143;-74
2021/05/27 10:15:12;;;;;;;1.67;0.77;;;11.40;99.90;;;;;;5003486;28;20074;-74
2021/05/27 10:17:39;;;;;;;2.50;0.80;;;11.40;99.90;;;;;;5022234;28;20116;-75
2021/05/27 10:20:25;;;;;;;1.27;0.95;;;11.40;99.90;;;;;;5003626;28;20074;-74
2021/05/27 10:22:54;;;;;;;2.20;0.80;;;11.40;99.90;;;;;;5015833;28;20581;-74
2021/05/27 10:25:19;;;;;;;3.10;0.77;;;11.40;99.90;;;;;;5011779;28;20446;-74
2021/05/27 10:27:51;;;;;;;0.90;0.70;;;11.40;99.90;;;;;;5017950;28;20138;-74
2021/05/27 10:30:18;;;;;;;0.88;0.60;;;11.40;99.90;;;;;;5028683;28;20255;-75
2021/05/27 10:32:48;;;;;;;2.65;0.80;;;11.30;99.90;;;;;;5011559;28;20283;-74
2021/05/27 10:35:14;;;;;;;1.23;0.68;;;11.30;99.90;;;;;;5022726;28;20073;-74
2021/05/27 10:37:42;;;;;;;1.67;0.60;;;11.10;99.90;;;;;;5008144;28;20121;-75
2021/05/27 10:40:11;;;;;;;1.55;0.68;;;11.10;99.90;;;;;;5011376;28;20082;-75
2021/05/27 10:42:55;;;;;;;3.33;0.60;;;11.10;99.90;;;;;;4998556;28;20112;-75
2021/05/27 10:45:26;;;;;;;1.50;0.60;;;11.10;99.90;;;;;;5021808;28;20691;-74
2021/05/27 10:48:11;;;;;;;2.00;0.80;;;11.30;99.90;;;;;;5020504;28;20108;-75
2021/05/27 10:50:53;;;;;;;1.10;0.38;;;11.30;99.90;;;;;;5012017;28;20187;-73
2021/05/27 10:53:37;;;;;;;2.65;0.80;;;11.40;99.90;;;;;;5012943;28;20557;-75
2021/05/27 10:56:08;;;;;;;0.77;0.40;;;11.50;99.90;;;;;;5006247;28;20457;-75
2021/05/27 11:01:14;;;;;;;1.08;0.60;;;11.40;99.90;;;;;;5020973;28;20140;-75
2021/05/27 11:03:46;;;;;;;0.93;0.50;;;11.50;99.90;;;;;;5016051;28;20212;-75
2021/05/27 11:06:29;;;;;;;1.98;0.30;;;11.40;99.90;;;;;;5018145;28;20085;-75
2021/05/27 11:09:10;;;;;;;0.50;0.40;;;11.40;99.90;;;;;;4994861;28;20078;-75
2021/05/27 11:11:57;;;;;;;1.75;0.47;;;11.40;99.90;;;;;;4993229;28;20446;-74
2021/05/27 11:14:27;;;;;;;0.77;0.45;;;11.40;99.90;;;;;;4994383;28;20101;-75
2021/05/27 11:17:24;;;;;;;1.30;0.30;;;11.50;99.90;;;;;;5014406;28;20614;-75
2021/05/27 11:20:14;;;;;;;0.98;0.50;;;11.40;99.90;;;;;;5010400;28;21465;-75
2021/05/27 11:25:08;;;;;;;1.83;0.80;;;11.50;99.90;;;;;;5014966;28;20558;-74
2021/05/27 11:27:40;;;;;;;0.43;0.30;;;11.60;99.90;;;;;;5012323;28;20090;-74
2021/05/27 11:30:23;;;;;;;0.82;0.40;;;11.60;99.90;;;;;;5010574;28;20093;-74
2021/05/27 11:32:54;;;;;;;0.63;0.63;;;11.70;99.90;;;;;;4992901;28;20508;-74
2021/05/27 11:35:27;;;;;;;4.57;0.73;;;11.60;99.90;;;;;;5024899;28;20081;-75
2021/05/27 11:37:53;;;;;;;1.75;0.45;;;11.70;99.90;;;;;;5014097;28;20077;-78
2021/05/27 11:40:27;;;;;;;1.85;0.95;;;11.70;99.90;;;;;;5024052;28;20098;-80
2021/05/27 11:42:54;;;;;;;1.60;0.57;;;11.80;99.90;;;;;;5001710;28;20161;-82
2021/05/27 11:45:25;;;;;;;1.77;0.85;;;11.80;99.90;;;;;;5031298;28;20082;-80
2021/05/27 11:48:39;;;;;;;0.77;0.60;;;11.80;99.90;;;;;;5012619;28;20088;-81
2021/05/27 11:51:13;;;;;;;1.48;1.10;;;11.80;99.90;;;;;;5015604;28;20653;-78
2021/05/27 11:53:48;;;;;;;1.67;1.13;;;11.70;99.90;;;;;;5002227;28;20120;-82
2021/05/27 11:56:27;;;;;;;2.35;0.90;;;11.70;99.90;;;;;;5015945;28;20530;-78
2021/05/27 11:58:53;;;;;;;0.95;0.60;;;11.70;99.90;;;;;;5000817;28;21878;-77
2021/05/27 12:01:20;;;;;;;0.85;0.68;;;11.80;99.90;;;;;;5018899;28;20085;-77
2021/05/27 12:04:05;;;;;;;0.95;0.60;;;11.80;99.90;;;;;;5014188;28;20099;-77
2021/05/27 12:06:51;;;;;;;1.50;0.80;;;11.90;99.90;;;;;;5023462;28;20086;-77
2021/05/27 12:09:22;;;;;;;1.73;1.15;;;12.10;99.90;;;;;;5032057;28;20457;-78
2021/05/27 12:11:47;;;;;;;2.83;1.20;;;12.10;99.90;;;;;;5010497;28;20089;-78
2021/05/27 12:14:13;;;;;;;2.40;0.98;;;12.20;99.90;;;;;;5013544;28;20070;-78
2021/05/27 12:16:39;;;;;;;1.13;0.73;;;12.30;99.90;;;;;;5015579;28;20074;-78
2021/05/27 12:19:07;;;;;;;1.58;0.73;;;12.30;99.90;;;;;;5016789;28;20066;-78
2021/05/27 12:21:34;;;;;;;1.75;1.05;;;12.20;99.90;;;;;;5001472;28;20585;-77
2021/05/27 12:24:00;;;;;;;2.63;1.10;;;12.10;99.90;;;;;;5003458;28;20422;-78
2021/05/27 12:26:26;;;;;;;3.92;0.77;;;12.20;99.90;;;;;;5010740;28;20089;-78
2021/05/27 12:28:55;;;;;;;1.83;0.73;;;12.10;99.90;;;;;;5012838;28;20078;-77
2021/05/27 12:31:21;;;;;;;1.67;0.70;;;12.30;99.90;;;;;;5020647;28;20082;-79
2021/05/27 12:33:49;;;;;;;1.20;0.85;;;12.70;99.90;;;;;;5014058;28;20141;-78
2021/05/27 12:36:15;;;;;;;1.60;0.80;;;12.90;99.90;;;;;;5012072;28;20070;-76
2021/05/27 12:38:49;;;;;;;2.60;0.65;;;13.00;99.90;;;;;;5009849;28;20073;-77
2021/05/27 12:41:17;;;;;;;3.33;0.75;;;13.10;99.90;;;;;;5019014;28;20070;-78
2021/05/27 12:43:51;;;;;;;2.80;0.73;;;12.80;99.90;;;;;;4996511;28;20102;-77
2021/05/27 12:46:17;;;;;;;1.27;0.50;;;12.90;99.90;;;;;;5000587;28;20546;-78
2021/05/27 12:48:51;;;;;;;1.45;0.85;;;13.10;99.90;;;;;;5020442;28;20091;-77
2021/05/27 12:51:19;;;;;;;1.77;0.65;;;13.40;99.90;;;;;;5017456;28;20094;-77
2021/05/27 12:53:47;;;;;;;3.15;0.50;;;13.40;99.90;;;;;;4996121;28;20109;-77
2021/05/27 12:56:22;;;;;;;1.85;0.43;;;13.50;99.90;;;;;;5020304;28;20066;-77
2021/05/27 12:58:49;;;;;;;0.93;0.40;;;13.50;99.90;;;;;;5021041;28;20073;-78
2021/05/27 13:01:16;;;;;;;2.28;0.60;;;13.70;99.90;;;;;;5009929;28;20102;-78
2021/05/27 13:03:50;;;;;;;0.55;0.50;;;13.80;99.90;;;;;;4995807;28;20208;-78
2021/05/27 13:06:18;;;;;;;1.30;0.50;;;13.50;99.90;;;;;;5029368;28;20140;-77
2021/05/27 13:08:44;;;;;;;1.48;0.40;;;13.40;99.90;;;;;;5029818;28;20085;-77
2021/05/27 13:11:24;;;;;;;0.75;0.65;;;13.50;99.90;;;;;;5017178;28;20094;-76
2021/05/27 13:13:51;;;;;;;0.70;0.50;;;13.80;99.90;;;;;;5001658;28;20086;-77